Time;durP1;ratioP1;P1;durP2;ratioP2;P2;SDS_P1;SDS_P2;PMS_P1;PMS_P2;Temp;Humidity;BMP_temperature;BMP_pressure;BME280_temperature;BME280_humidity;BME280_pressure;Samples;Min_cycle;Max_cycle;Signal;HPM_P1;HPM_P2
2022/05/06 00:00:21;;;;;;;;;;;;;;;;;;5072467;28;20124;-66
2022/05/06 00:02:47;;;;;;;68.78;38.33;;;;;;;;;;5070479;28;20305;-65
2022/05/06 00:05:13;;;;;;;67.47;41.45;;;;;;;;;;5071869;28;20353;-65
2022/05/06 00:07:39;;;;;;;71.55;41.10;;;;;;;;;;5071731;28;20060;-65
2022/05/06 00:10:06;;;;;;;71.32;40.83;;;;;;;;;;5071987;28;20127;-65
2022/05/06 00:12:33;;;;;;;70.80;40.58;;;;;;;;;;5070259;28;20106;-65
2022/05/06 00:14:59;;;;;;;71.65;41.20;;;;;;;;;;5071622;28;20059;-65
2022/05/06 00:17:25;;;;;;;;;;;;;;;;;;5070654;28;20413;-65
2022/05/06 00:19:51;;;;;;;63.00;37.95;;;;;;;;;;5069771;28;20031;-65
2022/05/06 00:22:17;;;;;;;62.78;38.80;;;;;;;;;;5071675;28;20060;-65
2022/05/06 00:24:44;;;;;;;67.28;39.78;;;;;;;;;;5071630;28;20464;-65
2022/05/06 00:27:10;;;;;;;66.40;40.85;;;;;;;;;;5071459;28;20097;-65
2022/05/06 00:29:37;;;;;;;72.55;41.35;;;;;;;;;;5071400;28;20040;-65
2022/05/06 00:32:03;;;;;;;73.50;41.80;;;;;;;;;;5071464;28;20051;-65
2022/05/06 00:34:29;;;;;;;70.45;41.45;;;;;;;;;;5069932;28;20143;-69
2022/05/06 00:36:55;;;;;;;69.38;41.88;;;;;;;;;;5071431;28;20044;-65
2022/05/06 00:39:22;;;;;;;72.55;42.47;;;;;;;;;;5071379;28;20059;-65
2022/05/06 00:41:48;;;;;;;70.03;41.40;;;;;;;;;;5071373;28;20049;-65
2022/05/06 00:44:14;;;;;;;71.90;41.65;;;;;;;;;;5069884;28;20151;-65
2022/05/06 00:46:40;;;;;;;70.75;42.25;;;;;;;;;;5071229;28;20044;-65
2022/05/06 00:49:08;;;;;;;70.40;43.28;;;;;;;;;;5071419;28;20112;-65
2022/05/06 00:51:35;;;;;;;73.65;43.85;;;;;;;;;;5071181;28;20121;-66
2022/05/06 00:54:01;;;;;;;70.10;41.70;;;;;;;;;;5071191;28;20088;-65
2022/05/06 00:56:27;;;;;;;71.75;41.03;;;;;;;;;;5071359;28;20440;-65
2022/05/06 00:58:54;;;;;;;72.45;42.10;;;;;;;;;;5071078;28;20048;-65
2022/05/06 01:01:20;;;;;;;74.90;42.97;;;;;;;;;;5053072;28;20051;-66
2022/05/06 01:03:47;;;;;;;71.93;41.92;;;;;;;;;;5070704;28;20064;-66
2022/05/06 01:06:16;;;;;;;72.68;42.92;;;;;;;;;;5070930;28;20074;-67
2022/05/06 01:08:43;;;;;;;74.82;43.05;;;;;;;;;;5070663;28;20051;-66
2022/05/06 01:11:11;;;;;;;76.68;43.83;;;;;;;;;;5070696;28;20131;-66
2022/05/06 01:13:44;;;;;;;80.65;43.92;;;;;;;;;;5070819;28;20150;-66
2022/05/06 01:16:14;;;;;;;68.03;41.60;;;;;;;;;;5070537;28;20102;-65
2022/05/06 01:18:40;;;;;;;73.05;43.80;;;;;;;;;;5069144;28;20451;-66
2022/05/06 01:21:06;;;;;;;;;;;;;;;;;;5070876;28;20118;-66
2022/05/06 01:23:33;;;;;;;73.18;43.80;;;;;;;;;;5070414;28;19924;-65
2022/05/06 01:25:59;;;;;;;72.10;43.20;;;;;;;;;;5070337;28;20068;-66
2022/05/06 01:28:26;;;;;;;69.63;42.30;;;;;;;;;;5069723;28;20062;-65
2022/05/06 01:31:00;;;;;;;66.25;40.65;;;;;;;;;;5070411;28;20044;-66
2022/05/06 01:33:27;;;;;;;72.57;42.03;;;;;;;;;;5070309;28;20040;-66
2022/05/06 01:35:59;;;;;;;64.85;41.25;;;;;;;;;;5070252;28;20055;-66
2022/05/06 01:38:35;;;;;;;63.20;40.83;;;;;;;;;;5070194;28;20071;-65
2022/05/06 01:41:03;;;;;;;65.97;41.20;;;;;;;;;;5068610;28;20358;-66
2022/05/06 01:43:39;;;;;;;71.47;41.88;;;;;;;;;;5069803;28;20136;-66
2022/05/06 01:46:09;;;;;;;67.22;39.08;;;;;;;;;;5070007;28;20476;-66
2022/05/06 01:48:36;;;;;;;62.20;41.42;;;;;;;;;;5070112;28;20044;-65
2022/05/06 01:51:02;;;;;;;61.38;38.85;;;;;;;;;;5069736;28;20040;-66
2022/05/06 01:53:29;;;;;;;59.00;38.00;;;;;;;;;;5069626;28;20429;-66
2022/05/06 01:55:55;;;;;;;;;;;;;;;;;;5070174;28;20044;-66
2022/05/06 01:58:21;;;;;;;61.35;39.35;;;;;;;;;;5069699;28;19992;-66
2022/05/06 02:00:47;;;;;;;58.30;37.60;;;;;;;;;;5068230;28;20048;-66
2022/05/06 02:05:58;;;;;;;55.90;37.92;;;;;;;;;;5069600;28;19924;-66
2022/05/06 02:08:24;;;;;;;61.60;38.38;;;;;;;;;;5069856;28;20333;-65
2022/05/06 02:10:50;;;;;;;63.88;41.40;;;;;;;;;;5069591;28;20113;-65
2022/05/06 02:13:16;;;;;;;62.38;39.95;;;;;;;;;;5068021;28;20432;-65
2022/05/06 02:15:42;;;;;;;61.50;38.28;;;;;;;;;;5069471;28;20376;-67
2022/05/06 02:18:09;;;;;;;62.42;39.63;;;;;;;;;;5068219;28;20125;-65
2022/05/06 02:20:36;;;;;;;59.13;38.65;;;;;;;;;;5069518;28;20059;-65
2022/05/06 02:23:02;;;;;;;68.13;40.95;;;;;;;;;;5069176;28;20159;-65
2022/05/06 02:25:28;;;;;;;66.88;41.42;;;;;;;;;;5069414;28;20049;-65
2022/05/06 02:27:54;;;;;;;59.45;38.90;;;;;;;;;;5069296;28;20139;-65
2022/05/06 02:33:23;;;;;;;57.22;36.40;;;;;;;;;;5069341;28;20126;-65
2022/05/06 02:35:49;;;;;;;60.17;38.65;;;;;;;;;;5069120;28;20049;-65
2022/05/06 02:38:15;;;;;;;58.35;38.00;;;;;;;;;;5068717;28;20080;-65
2022/05/06 02:40:41;;;;;;;60.03;38.00;;;;;;;;;;5068848;28;20056;-65
2022/05/06 02:43:08;;;;;;;62.95;38.15;;;;;;;;;;5068869;28;20106;-65
2022/05/06 02:45:34;;;;;;;61.60;38.88;;;;;;;;;;5067464;28;20128;-65
2022/05/06 02:48:00;;;;;;;;;;;;;;;;;;5068042;28;20137;-65
2022/05/06 02:50:26;;;;;;;60.00;39.33;;;;;;;;;;5067566;28;19924;-65
2022/05/06 02:52:53;;;;;;;57.97;37.67;;;;;;;;;;5068839;28;20037;-66
2022/05/06 02:55:20;;;;;;;59.92;38.50;;;;;;;;;;5068816;28;20083;-65
2022/05/06 02:57:47;;;;;;;61.05;38.80;;;;;;;;;;5050815;28;20456;-65
2022/05/06 03:00:14;;;;;;;58.05;38.17;;;;;;;;;;5068967;28;20053;-65
2022/05/06 03:02:40;;;;;;;57.70;38.40;;;;;;;;;;5068894;28;20110;-65
2022/05/06 03:05:06;;;;;;;57.35;37.95;;;;;;;;;;5068484;28;20064;-65
2022/05/06 03:07:32;;;;;;;62.17;38.30;;;;;;;;;;5068955;28;20056;-65
2022/05/06 03:09:58;;;;;;;70.40;41.70;;;;;;;;;;5068786;28;20060;-65
2022/05/06 03:12:29;;;;;;;91.18;44.25;;;;;;;;;;5068940;28;20068;-65
2022/05/06 03:14:56;;;;;;;211.30;47.33;;;;;;;;;;5068699;28;20436;-65
2022/05/06 03:17:22;;;;;;;134.15;47.88;;;;;;;;;;5068679;28;20044;-66
2022/05/06 03:19:48;;;;;;;408.95;62.33;;;;;;;;;;5068885;28;20151;-65
2022/05/06 03:22:16;;;;;;;215.95;59.20;;;;;;;;;;5068655;28;20048;-65
2022/05/06 03:24:43;;;;;;;291.33;59.22;;;;;;;;;;5068762;28;20064;-66
2022/05/06 03:29:53;;;;;;;295.67;62.55;;;;;;;;;;5068737;28;20094;-65
2022/05/06 03:32:19;;;;;;;175.07;56.38;;;;;;;;;;5068883;28;20082;-65
2022/05/06 03:34:46;;;;;;;568.92;71.50;;;;;;;;;;5068751;28;20574;-66
2022/05/06 03:37:12;;;;;;;367.75;62.53;;;;;;;;;;5068677;28;20048;-65
2022/05/06 03:39:38;;;;;;;378.33;64.15;;;;;;;;;;5068681;28;20059;-66
2022/05/06 03:42:04;;;;;;;396.70;66.43;;;;;;;;;;5068329;28;20047;-67
2022/05/06 03:44:30;;;;;;;;;;;;;;;;;;5069115;28;20127;-65
2022/05/06 03:46:56;;;;;;;249.25;62.40;;;;;;;;;;5068319;28;20029;-66
2022/05/06 03:49:22;;;;;;;402.00;67.78;;;;;;;;;;5068229;28;20045;-65
2022/05/06 03:51:49;;;;;;;;;;;;;;;;;;5071929;28;20074;-66
2022/05/06 03:54:16;;;;;;;309.30;70.50;;;;;;;;;;5071612;28;20026;-66
2022/05/06 03:56:42;;;;;;;480.90;70.03;;;;;;;;;;5071634;28;20114;-65
2022/05/06 03:59:09;;;;;;;389.10;68.38;;;;;;;;;;5071466;28;20092;-65
2022/05/06 04:01:35;;;;;;;311.02;68.05;;;;;;;;;;5071094;28;20048;-65
2022/05/06 04:04:02;;;;;;;252.20;63.75;;;;;;;;;;5070955;28;20072;-66
2022/05/06 04:06:28;;;;;;;393.08;67.38;;;;;;;;;;5070779;28;20492;-66
2022/05/06 04:08:54;;;;;;;237.93;63.70;;;;;;;;;;5070704;28;20189;-66
2022/05/06 04:11:20;;;;;;;312.55;63.08;;;;;;;;;;5070280;28;20084;-66
2022/05/06 04:13:47;;;;;;;307.83;51.10;;;;;;;;;;5070356;28;20052;-66
2022/05/06 04:16:14;;;;;;;254.15;55.72;;;;;;;;;;5070078;28;20139;-66
2022/05/06 04:18:40;;;;;;;456.95;65.95;;;;;;;;;;5070152;28;20135;-66
2022/05/06 04:23:52;;;;;;;158.27;49.08;;;;;;;;;;5069853;28;20090;-66
2022/05/06 04:26:18;;;;;;;177.80;46.05;;;;;;;;;;5068155;28;20540;-65
2022/05/06 04:28:44;;;;;;;212.45;47.05;;;;;;;;;;5068507;28;20044;-66
2022/05/06 04:31:10;;;;;;;162.93;49.88;;;;;;;;;;5069921;28;20472;-66
2022/05/06 04:33:40;;;;;;;153.18;48.67;;;;;;;;;;5068484;28;20056;-66
2022/05/06 04:36:06;;;;;;;217.43;47.92;;;;;;;;;;5070169;28;20068;-66
2022/05/06 04:38:32;;;;;;;171.73;48.30;;;;;;;;;;5070059;28;20143;-66
2022/05/06 04:40:59;;;;;;;152.77;42.08;;;;;;;;;;5069991;28;20056;-66
2022/05/06 04:43:25;;;;;;;104.95;36.92;;;;;;;;;;5069822;28;20064;-66
2022/05/06 04:45:51;;;;;;;;;;;;;;;;;;5070355;28;20056;-66
2022/05/06 04:48:17;;;;;;;149.10;39.55;;;;;;;;;;5070168;28;20371;-66
2022/05/06 04:50:44;;;;;;;214.35;41.95;;;;;;;;;;5069796;28;20067;-66
2022/05/06 04:53:11;;;;;;;130.60;35.95;;;;;;;;;;5069743;28;20135;-66
2022/05/06 04:55:38;;;;;;;154.70;37.85;;;;;;;;;;5069863;28;20059;-66
2022/05/06 04:58:05;;;;;;;90.78;33.70;;;;;;;;;;5068231;28;20120;-66
2022/05/06 05:00:32;;;;;;;188.77;39.42;;;;;;;;;;5069607;28;20049;-66
2022/05/06 05:02:58;;;;;;;232.18;41.28;;;;;;;;;;5068567;28;20155;-66
2022/05/06 05:05:24;;;;;;;;;;;;;;;;;;5070036;28;20044;-66
2022/05/06 05:07:51;;;;;;;165.80;41.15;;;;;;;;;;5069477;28;20007;-66
2022/05/06 05:10:17;;;;;;;;;;;;;;;;;;5068377;28;20052;-66
2022/05/06 05:12:43;;;;;;;199.25;43.70;;;;;;;;;;5069222;28;20020;-66
2022/05/06 05:15:10;;;;;;;152.65;39.50;;;;;;;;;;5069381;28;20134;-66
2022/05/06 05:17:36;;;;;;;142.23;39.20;;;;;;;;;;5068871;28;20424;-66
2022/05/06 05:20:02;;;;;;;;;;;;;;;;;;5069541;28;20063;-66
2022/05/06 05:22:28;;;;;;;171.95;43.13;;;;;;;;;;5069101;28;20221;-66
2022/05/06 05:24:54;;;;;;;;;;;;;;;;;;5069450;28;20044;-66
2022/05/06 05:27:20;;;;;;;148.57;40.38;;;;;;;;;;5069025;28;20026;-66
2022/05/06 05:29:46;;;;;;;132.85;43.78;;;;;;;;;;5067684;28;20102;-65
2022/05/06 05:32:13;;;;;;;107.60;43.30;;;;;;;;;;5068906;28;20074;-66
2022/05/06 05:34:41;;;;;;;93.53;42.65;;;;;;;;;;5068905;28;20070;-65
2022/05/06 05:37:08;;;;;;;128.07;44.20;;;;;;;;;;5067523;28;20060;-66
2022/05/06 05:39:35;;;;;;;108.32;43.65;;;;;;;;;;5068828;28;20045;-66
2022/05/06 05:42:03;;;;;;;118.25;46.85;;;;;;;;;;5068548;28;20044;-66
2022/05/06 05:49:58;;;;;;;125.35;47.58;;;;;;;;;;5066955;28;20086;-67
2022/05/06 05:52:25;;;;;;;111.85;48.95;;;;;;;;;;5068259;28;20365;-66
2022/05/06 05:54:51;;;;;;;139.85;50.53;;;;;;;;;;5068514;28;20133;-66
2022/05/06 05:57:17;;;;;;;149.15;50.13;;;;;;;;;;5068605;28;20127;-66
2022/05/06 05:59:43;;;;;;;123.30;45.22;;;;;;;;;;5068265;28;20383;-66
2022/05/06 06:02:10;;;;;;;;;;;;;;;;;;5067395;28;20200;-66
2022/05/06 06:04:37;;;;;;;144.38;48.42;;;;;;;;;;5067947;28;19969;-65
2022/05/06 06:07:02;;;;;;;;;;;;;;;;;;5068340;28;20131;-64
2022/05/06 06:09:29;;;;;;;96.40;46.22;;;;;;;;;;5068114;28;20026;-65
2022/05/06 06:11:55;;;;;;;112.80;47.10;;;;;;;;;;5068285;28;20512;-65
2022/05/06 06:14:21;;;;;;;95.45;48.15;;;;;;;;;;5068176;28;20128;-66
2022/05/06 06:16:48;;;;;;;113.97;55.75;;;;;;;;;;5068163;28;20056;-65
2022/05/06 06:19:15;;;;;;;94.13;48.20;;;;;;;;;;5068222;28;20132;-66
2022/05/06 06:21:41;;;;;;;113.72;45.25;;;;;;;;;;5068138;28;20044;-66
2022/05/06 06:24:07;;;;;;;107.78;45.83;;;;;;;;;;5068267;28;20064;-65
2022/05/06 06:26:34;;;;;;;106.43;46.70;;;;;;;;;;5068056;28;20049;-65
2022/05/06 06:29:00;;;;;;;124.95;48.95;;;;;;;;;;5068185;28;20428;-65
2022/05/06 06:31:26;;;;;;;98.38;43.78;;;;;;;;;;5068098;28;20059;-66
2022/05/06 06:33:52;;;;;;;99.55;43.58;;;;;;;;;;5066655;28;20107;-65
2022/05/06 06:36:18;;;;;;;;;;;;;;;;;;5068337;28;20068;-66
2022/05/06 06:38:44;;;;;;;79.20;40.63;;;;;;;;;;5068073;28;19943;-65
2022/05/06 06:41:10;;;;;;;81.30;39.88;;;;;;;;;;5068084;28;20052;-65
2022/05/06 06:43:36;;;;;;;89.10;41.45;;;;;;;;;;5067774;28;20218;-65
2022/05/06 06:46:05;;;;;;;77.65;40.75;;;;;;;;;;5068275;28;20202;-65
2022/05/06 06:48:31;;;;;;;81.07;40.90;;;;;;;;;;5067775;28;20049;-65
2022/05/06 06:50:58;;;;;;;85.65;41.72;;;;;;;;;;5067949;28;20044;-66
2022/05/06 06:53:24;;;;;;;82.22;40.20;;;;;;;;;;5067911;28;20086;-66
2022/05/06 06:55:51;;;;;;;91.50;43.38;;;;;;;;;;5067718;28;20178;-65
2022/05/06 06:58:17;;;;;;;95.20;42.97;;;;;;;;;;5067934;28;20400;-65
2022/05/06 07:00:43;;;;;;;98.53;45.65;;;;;;;;;;5067356;28;20461;-64
2022/05/06 07:03:10;;;;;;;82.97;42.28;;;;;;;;;;5065926;28;20079;-65
2022/05/06 07:05:36;;;;;;;93.32;41.88;;;;;;;;;;5067169;28;20055;-65
2022/05/06 07:13:32;;;;;;;84.82;40.38;;;;;;;;;;5067479;28;20143;-65
2022/05/06 07:15:58;;;;;;;77.85;39.95;;;;;;;;;;5067484;28;20476;-65
2022/05/06 07:18:24;;;;;;;72.78;37.90;;;;;;;;;;5067490;28;20062;-65
2022/05/06 07:20:54;;;;;;;61.22;32.00;;;;;;;;;;5067833;28;20056;-65
2022/05/06 07:23:21;;;;;;;62.90;32.15;;;;;;;;;;5065648;28;20132;-65
2022/05/06 07:25:47;;;;;;;56.65;29.58;;;;;;;;;;5070506;28;20151;-65
2022/05/06 07:28:13;;;;;;;58.53;30.13;;;;;;;;;;5070053;28;20063;-64
2022/05/06 07:30:39;;;;;;;54.08;29.05;;;;;;;;;;5071113;28;20057;-64
2022/05/06 07:33:05;;;;;;;84.50;40.85;;;;;;;;;;5069821;28;20087;-64
2022/05/06 07:35:31;;;;;;;55.03;28.50;;;;;;;;;;5071248;28;20251;-66
2022/05/06 07:37:57;;;;;;;56.53;28.70;;;;;;;;;;5071323;28;20045;-65
2022/05/06 07:40:23;;;;;;;59.00;30.83;;;;;;;;;;5070964;28;20438;-65
2022/05/06 07:42:51;;;;;;;58.55;28.77;;;;;;;;;;5071024;28;20150;-66
2022/05/06 07:45:17;;;;;;;52.00;26.05;;;;;;;;;;5071039;28;20079;-66
2022/05/06 07:47:44;;;;;;;52.05;26.67;;;;;;;;;;5071068;28;20068;-65
2022/05/06 07:50:10;;;;;;;48.97;25.92;;;;;;;;;;5071109;28;20188;-65
2022/05/06 07:52:37;;;;;;;45.58;24.95;;;;;;;;;;5071100;28;20128;-65
2022/05/06 07:55:03;;;;;;;;;;;;;;;;;;5071145;28;20132;-65
2022/05/06 07:57:29;;;;;;;45.25;25.80;;;;;;;;;;5071194;28;20224;-66
2022/05/06 07:59:55;;;;;;;43.38;24.65;;;;;;;;;;5071389;28;20476;-67
2022/05/06 08:05:06;;;;;;;40.45;22.25;;;;;;;;;;5071123;28;20479;-64
2022/05/06 08:07:32;;;;;;;37.13;21.15;;;;;;;;;;5070726;28;20053;-65
2022/05/06 08:09:58;;;;;;;38.70;21.92;;;;;;;;;;5070551;28;20075;-67
2022/05/06 08:12:25;;;;;;;37.97;20.63;;;;;;;;;;5070796;28;20044;-65
2022/05/06 08:14:51;;;;;;;38.92;22.02;;;;;;;;;;5070482;28;20064;-65
2022/05/06 08:17:17;;;;;;;36.05;21.33;;;;;;;;;;5070400;28;20048;-64
2022/05/06 08:19:43;;;;;;;36.33;20.55;;;;;;;;;;5070388;28;20223;-65
2022/05/06 08:22:11;;;;;;;36.42;19.77;;;;;;;;;;5070311;28;20059;-65
2022/05/06 08:24:37;;;;;;;31.40;19.50;;;;;;;;;;5070330;28;20044;-64
2022/05/06 08:27:03;;;;;;;32.78;19.13;;;;;;;;;;5070245;28;20397;-65
2022/05/06 08:29:29;;;;;;;31.08;18.88;;;;;;;;;;5070187;28;20088;-65
2022/05/06 08:31:56;;;;;;;28.92;16.90;;;;;;;;;;5051864;28;20147;-66
2022/05/06 08:34:21;;;;;;;;;;;;;;;;;;5068968;28;20127;-66
2022/05/06 08:36:48;;;;;;;24.48;15.85;;;;;;;;;;5069792;28;20389;-65
2022/05/06 08:39:14;;;;;;;;;;;;;;;;;;5070461;28;20460;-66
2022/05/06 08:41:41;;;;;;;24.60;15.32;;;;;;;;;;5069891;28;19970;-67
2022/05/06 08:52:26;;;;;;;17.95;11.30;;;;;;;;;;5069552;28;20128;-67
2022/05/06 08:54:52;;;;;;;16.13;9.75;;;;;;;;;;5068419;28;20186;-66
2022/05/06 08:57:18;;;;;;;16.70;10.85;;;;;;;;;;5069897;28;20119;-67
2022/05/06 08:59:50;;;;;;;15.32;9.68;;;;;;;;;;5068008;28;20044;-67
2022/05/06 09:02:16;;;;;;;15.93;10.15;;;;;;;;;;5069829;28;20048;-66
2022/05/06 09:04:42;;;;;;;18.65;11.18;;;;;;;;;;5068891;28;20110;-66
2022/05/06 09:07:19;;;;;;;16.38;10.95;;;;;;;;;;5050997;28;20060;-66
2022/05/06 09:10:05;;;;;;;28.48;17.85;;;;;;;;;;5069487;28;20076;-65
2022/05/06 09:12:41;;;;;;;46.03;30.05;;;;;;;;;;5068901;28;20049;-70
2022/05/06 09:17:52;;;;;;;18.85;11.35;;;;;;;;;;5069161;28;20472;-65
2022/05/06 09:20:19;;;;;;;;;;;;;;;;;;5069457;28;20084;-66
2022/05/06 09:22:45;;;;;;;15.80;9.57;;;;;;;;;;5069371;28;19970;-68
2022/05/06 09:25:11;;;;;;;16.60;9.55;;;;;;;;;;5051158;28;20442;-66
2022/05/06 09:27:37;;;;;;;17.88;10.13;;;;;;;;;;5067936;28;20051;-65
2022/05/06 09:30:09;;;;;;;16.75;8.80;;;;;;;;;;5069050;28;20093;-67
2022/05/06 09:32:36;;;;;;;16.15;9.38;;;;;;;;;;5069078;28;20128;-65
2022/05/06 09:35:09;;;;;;;15.20;8.30;;;;;;;;;;5067383;28;20075;-67
2022/05/06 09:37:49;;;;;;;15.77;8.73;;;;;;;;;;5069230;28;20147;-67
2022/05/06 09:40:16;;;;;;;16.13;8.90;;;;;;;;;;5069025;28;20040;-70
2022/05/06 09:42:43;;;;;;;14.50;9.48;;;;;;;;;;5068355;28;20092;-67
2022/05/06 09:45:14;;;;;;;17.27;10.20;;;;;;;;;;5068733;28;20050;-66
2022/05/06 09:47:40;;;;;;;28.42;11.00;;;;;;;;;;5068430;28;20143;-69
2022/05/06 09:50:08;;;;;;;14.32;9.05;;;;;;;;;;5068535;28;20561;-66
2022/05/06 09:52:34;;;;;;;16.67;8.55;;;;;;;;;;5067162;28;20368;-69
2022/05/06 09:55:01;;;;;;;15.05;8.30;;;;;;;;;;5066777;28;20497;-68
2022/05/06 09:57:29;;;;;;;16.65;9.80;;;;;;;;;;5068448;28;20145;-68
2022/05/06 09:59:55;;;;;;;15.85;10.02;;;;;;;;;;5067971;28;20499;-67
2022/05/06 10:02:21;;;;;;;15.48;9.55;;;;;;;;;;5066856;28;20047;-66
2022/05/06 10:04:50;;;;;;;17.42;10.75;;;;;;;;;;5068299;28;20075;-67
2022/05/06 10:07:19;;;;;;;18.75;10.02;;;;;;;;;;5068238;28;20448;-67
2022/05/06 10:10:05;;;;;;;15.55;9.60;;;;;;;;;;5068061;28;20071;-69
2022/05/06 10:12:35;;;;;;;16.88;9.82;;;;;;;;;;5068193;28;20341;-67
2022/05/06 10:15:05;;;;;;;22.20;10.07;;;;;;;;;;5068192;28;20083;-66
2022/05/06 10:17:49;;;;;;;16.38;9.80;;;;;;;;;;5067835;28;20491;-66
2022/05/06 10:20:37;;;;;;;16.08;9.50;;;;;;;;;;5068186;28;20048;-66
2022/05/06 10:23:07;;;;;;;17.75;9.80;;;;;;;;;;5067993;28;20048;-64
2022/05/06 10:25:42;;;;;;;14.55;9.23;;;;;;;;;;5067948;28;20381;-64
2022/05/06 10:34:11;;;;;;;14.15;7.90;;;;;;;;;;5068234;28;20088;-69
2022/05/06 10:36:50;;;;;;;13.38;7.80;;;;;;;;;;5068205;28;20116;-67
2022/05/06 10:39:21;;;;;;;14.95;7.95;;;;;;;;;;5066657;28;20333;-66
2022/05/06 10:42:02;;;;;;;12.73;7.75;;;;;;;;;;5068008;28;20040;-69
2022/05/06 10:44:33;;;;;;;13.07;7.28;;;;;;;;;;5067526;28;20114;-68
2022/05/06 10:47:00;;;;;;;12.43;7.07;;;;;;;;;;5068015;28;20052;-67
2022/05/06 10:49:26;;;;;;;;;;;;;;;;;;5068434;28;20058;-67
2022/05/06 10:51:52;;;;;;;11.25;5.93;;;;;;;;;;5067856;28;19920;-66
2022/05/06 10:54:20;;;;;;;12.65;6.53;;;;;;;;;;5067996;28;20048;-68
2022/05/06 10:56:46;;;;;;;11.45;6.43;;;;;;;;;;5067774;28;20056;-66
2022/05/06 10:59:12;;;;;;;11.30;5.68;;;;;;;;;;5067859;28;20073;-68
2022/05/06 11:01:38;;;;;;;12.88;6.13;;;;;;;;;;5071338;28;20373;-68
2022/05/06 11:04:04;;;;;;;11.45;5.68;;;;;;;;;;5072016;28;20097;-67
2022/05/06 11:06:30;;;;;;;10.70;5.60;;;;;;;;;;5072013;28;20137;-67
2022/05/06 11:08:57;;;;;;;12.82;6.18;;;;;;;;;;5071819;28;20068;-68
2022/05/06 11:11:23;;;;;;;;;;;;;;;;;;5070612;28;20044;-67
2022/05/06 11:13:51;;;;;;;12.52;6.75;;;;;;;;;;5071673;28;20270;-69
2022/05/06 11:16:17;;;;;;;14.63;6.03;;;;;;;;;;5070132;28;20393;-67
2022/05/06 11:18:48;;;;;;;12.15;5.35;;;;;;;;;;5071623;28;20123;-66
2022/05/06 11:21:28;;;;;;;11.82;5.40;;;;;;;;;;5071863;28;20137;-66
2022/05/06 11:23:54;;;;;;;9.70;4.70;;;;;;;;;;5071715;28;20105;-67
2022/05/06 11:26:38;;;;;;;11.35;5.03;;;;;;;;;;5071312;28;20055;-68
2022/05/06 11:29:04;;;;;;;12.90;6.30;;;;;;;;;;5071341;28;20083;-69
2022/05/06 11:31:30;;;;;;;;;;;;;;;;;;5070146;28;20045;-68
2022/05/06 11:33:57;;;;;;;14.68;6.00;;;;;;;;;;5070990;28;19928;-67
2022/05/06 11:36:23;;;;;;;12.43;5.28;;;;;;;;;;5071311;28;20063;-69
2022/05/06 11:38:49;;;;;;;11.43;5.72;;;;;;;;;;5071183;28;20117;-68
2022/05/06 11:41:17;;;;;;;13.98;5.72;;;;;;;;;;5071220;28;20097;-66
2022/05/06 11:43:44;;;;;;;11.68;5.43;;;;;;;;;;5071100;28;20116;-67
2022/05/06 11:49:04;;;;;;;16.75;5.70;;;;;;;;;;5071117;28;20147;-68
2022/05/06 11:51:44;;;;;;;11.55;5.22;;;;;;;;;;5071063;28;20430;-66
2022/05/06 11:54:10;;;;;;;14.07;5.35;;;;;;;;;;5071117;28;20101;-69
2022/05/06 11:56:37;;;;;;;11.38;4.60;;;;;;;;;;5070625;28;20087;-66
2022/05/06 11:59:04;;;;;;;17.15;4.00;;;;;;;;;;5070954;28;20041;-80
2022/05/06 12:01:31;;;;;;;9.68;3.97;;;;;;;;;;5070913;28;20185;-70
2022/05/06 12:04:01;;;;;;;13.60;4.15;;;;;;;;;;5068194;28;20072;-74
2022/05/06 12:06:28;;;;;;;9.32;3.70;;;;;;;;;;5069756;28;20093;-69
2022/05/06 12:09:07;;;;;;;11.35;4.10;;;;;;;;;;5069551;28;20113;-68
2022/05/06 12:11:33;;;;;;;9.73;3.35;;;;;;;;;;5069553;28;20045;-69
2022/05/06 12:14:05;;;;;;;12.57;3.97;;;;;;;;;;5070064;28;20150;-71
2022/05/06 12:16:31;;;;;;;13.07;4.05;;;;;;;;;;5069923;28;20074;-71
2022/05/06 12:18:58;;;;;;;11.48;4.03;;;;;;;;;;5069361;28;20098;-71
2022/05/06 12:21:28;;;;;;;9.68;3.50;;;;;;;;;;5068199;28;20412;-72
2022/05/06 12:24:01;;;;;;;10.68;2.90;;;;;;;;;;5068051;28;20421;-67
2022/05/06 12:26:27;;;;;;;8.48;2.40;;;;;;;;;;5069663;28;20207;-68
2022/05/06 12:28:53;;;;;;;12.13;3.50;;;;;;;;;;5069437;28;20056;-69
2022/05/06 12:31:25;;;;;;;10.98;3.45;;;;;;;;;;5069551;28;20048;-69
2022/05/06 12:33:59;;;;;;;8.90;3.40;;;;;;;;;;5069300;28;20128;-70
2022/05/06 12:36:25;;;;;;;12.52;4.30;;;;;;;;;;5069064;28;20052;-68
2022/05/06 12:38:51;;;;;;;14.27;4.57;;;;;;;;;;5068929;28;20048;-68
2022/05/06 12:41:19;;;;;;;9.90;4.60;;;;;;;;;;5069028;28;20044;-67
2022/05/06 12:43:46;;;;;;;15.45;5.05;;;;;;;;;;5069060;28;20048;-68
2022/05/06 12:46:23;;;;;;;10.75;4.50;;;;;;;;;;5068939;28;20058;-67
2022/05/06 12:51:34;;;;;;;13.60;4.55;;;;;;;;;;5069362;28;20373;-66
2022/05/06 12:54:00;;;;;;;10.48;5.32;;;;;;;;;;5069114;28;20348;-66
2022/05/06 12:56:26;;;;;;;11.40;5.50;;;;;;;;;;5068960;28;20119;-67
2022/05/06 12:58:52;;;;;;;;;;;;;;;;;;5069734;28;20132;-67
2022/05/06 13:01:18;;;;;;;11.13;5.05;;;;;;;;;;5068812;28;20403;-67
2022/05/06 13:03:45;;;;;;;13.10;5.82;;;;;;;;;;5030342;28;1101313;-67
2022/05/06 13:06:11;;;;;;;11.77;5.97;;;;;;;;;;5069858;28;20307;-66
2022/05/06 13:08:37;;;;;;;;;;;;;;;;;;5070472;28;20044;-69
2022/05/06 13:11:03;;;;;;;13.20;6.03;;;;;;;;;;5069726;28;20264;-67
2022/05/06 13:13:29;;;;;;;13.55;5.82;;;;;;;;;;5069501;28;20466;-66
2022/05/06 13:15:59;;;;;;;13.07;6.10;;;;;;;;;;5069522;28;20140;-67
2022/05/06 13:18:25;;;;;;;14.10;5.60;;;;;;;;;;5069743;28;20054;-67
2022/05/06 13:20:51;;;;;;;12.90;4.65;;;;;;;;;;5069468;28;20044;-67
2022/05/06 13:23:17;;;;;;;12.30;4.95;;;;;;;;;;5068665;28;20044;-67
2022/05/06 13:25:44;;;;;;;;;;;;;;;;;;5068354;28;20048;-67
2022/05/06 13:28:10;;;;;;;11.52;5.35;;;;;;;;;;5068900;28;20080;-67
2022/05/06 13:30:36;;;;;;;;;;;;;;;;;;5068051;28;20044;-67
2022/05/06 13:33:02;;;;;;;16.70;5.15;;;;;;;;;;5069154;28;20030;-64
2022/05/06 13:35:28;;;;;;;12.73;5.65;;;;;;;;;;5068969;28;20402;-65
2022/05/06 13:37:54;;;;;;;;;;;;;;;;;;5069405;28;20053;-68
2022/05/06 13:40:20;;;;;;;16.00;6.78;;;;;;;;;;5068990;28;20336;-68
2022/05/06 13:42:46;;;;;;;15.02;6.50;;;;;;;;;;5067206;28;20048;-67
2022/05/06 13:45:12;;;;;;;15.70;6.50;;;;;;;;;;5068722;28;20044;-69
2022/05/06 13:47:39;;;;;;;12.50;6.20;;;;;;;;;;5068644;28;20091;-68
2022/05/06 13:50:05;;;;;;;12.60;6.40;;;;;;;;;;5069028;28;20128;-68
2022/05/06 13:52:32;;;;;;;16.63;6.57;;;;;;;;;;5068629;28;20045;-66
2022/05/06 13:54:59;;;;;;;30.27;8.05;;;;;;;;;;5068445;28;20044;-67
2022/05/06 14:00:10;;;;;;;14.73;6.47;;;;;;;;;;5068364;28;20056;-67
2022/05/06 14:02:36;;;;;;;18.00;5.82;;;;;;;;;;5067132;28;20127;-67
2022/05/06 14:05:03;;;;;;;15.02;6.65;;;;;;;;;;5068712;28;20143;-65
2022/05/06 14:07:29;;;;;;;13.82;6.07;;;;;;;;;;5066400;28;20114;-66
2022/05/06 14:09:55;;;;;;;;;;;;;;;;;;5069070;28;20139;-68
2022/05/06 14:12:21;;;;;;;;;;;;;;;;;;5068601;28;20289;-66
2022/05/06 14:14:47;;;;;;;;;;;;;;;;;;5067657;28;19928;-66
2022/05/06 14:17:13;;;;;;;;;;;;;;;;;;5068897;28;20361;-67
2022/05/06 14:19:39;;;;;;;;;;;;;;;;;;5068904;28;20233;-66
2022/05/06 14:22:05;;;;;;;;;;;;;;;;;;5068626;28;19932;-65
2022/05/06 14:24:31;;;;;;;;;;;;;;;;;;5066854;28;19950;-67
2022/05/06 14:26:57;;;;;;;;;;;;;;;;;;5068421;28;19986;-68
2022/05/06 14:29:23;;;;;;;;;;;;;;;;;;5068359;28;19996;-67
2022/05/06 14:31:49;;;;;;;;;;;;;;;;;;5068591;28;19997;-65
2022/05/06 14:34:15;;;;;;;;;;;;;;;;;;5068438;28;20059;-67
2022/05/06 14:36:41;;;;;;;;;;;;;;;;;;5067944;28;20402;-68
2022/05/06 14:39:07;;;;;;;;;;;;;;;;;;5068115;28;19992;-67
2022/05/06 14:41:33;;;;;;;;;;;;;;;;;;5068223;28;19921;-66
2022/05/06 14:43:59;;;;;;;;;;;;;;;;;;5066944;28;20018;-69
2022/05/06 14:46:25;;;;;;;;;;;;;;;;;;5068447;28;19921;-68
2022/05/06 14:48:51;;;;;;;;;;;;;;;;;;5069147;28;19942;-67
2022/05/06 14:51:17;;;;;;;;;;;;;;;;;;5068982;28;19920;-68
2022/05/06 14:53:43;;;;;;;;;;;;;;;;;;5068345;28;19992;-69
2022/05/06 14:56:09;;;;;;;;;;;;;;;;;;5068150;28;20056;-66
2022/05/06 14:58:35;;;;;;;;;;;;;;;;;;5066712;28;19988;-68
2022/05/06 15:01:01;;;;;;;;;;;;;;;;;;5068117;28;20002;-68
2022/05/06 15:03:28;;;;;;;;;;;;;;;;;;5067691;28;20058;-68
2022/05/06 15:05:54;;;;;;;;;;;;;;;;;;5068323;28;20278;-68
2022/05/06 15:08:20;;;;;;;;;;;;;;;;;;5068162;28;19937;-71
2022/05/06 15:10:46;;;;;;;;;;;;;;;;;;5068082;28;20006;-68
2022/05/06 15:13:12;;;;;;;;;;;;;;;;;;5068176;28;20023;-69
2022/05/06 15:15:41;;;;;;;;;;;;;;;;;;5068210;28;19931;-69
2022/05/06 15:20:53;;;;;;;;;;;;;;;;;;5056292;28;19928;-69
2022/05/06 15:23:19;;;;;;;;;;;;;;;;;;5068151;28;19926;-68
2022/05/06 15:25:45;;;;;;;;;;;;;;;;;;5068153;28;19921;-68
2022/05/06 15:28:11;;;;;;;;;;;;;;;;;;5068305;28;19921;-68
2022/05/06 15:30:37;;;;;;;;;;;;;;;;;;5067733;28;19942;-69
2022/05/06 15:33:03;;;;;;;;;;;;;;;;;;5067955;28;19940;-68